createdAt,value
2022-12-25T00:00:26.478Z,6.10
2022-12-25T00:02:56.184Z,6.82
2022-12-25T00:05:24.911Z,6.55
2022-12-25T00:07:53.450Z,5.65
2022-12-25T00:10:22.008Z,5.47
2022-12-25T00:12:50.814Z,6.03
2022-12-25T00:15:19.527Z,6.78
2022-12-25T00:17:47.862Z,5.63
2022-12-25T00:20:17.605Z,6.70
2022-12-25T00:22:45.915Z,6.57
2022-12-25T00:25:14.504Z,6.40
2022-12-25T00:27:43.023Z,6.57
2022-12-25T00:30:12.338Z,6.05
2022-12-25T00:32:42.068Z,5.55
2022-12-25T00:35:10.975Z,5.43
2022-12-25T00:37:40.530Z,6.15
2022-12-25T00:40:10.749Z,6.00
2022-12-25T00:42:39.286Z,7.25
2022-12-25T00:45:08.703Z,6.57
2022-12-25T00:47:37.214Z,6.35
2022-12-25T00:50:07.236Z,6.28
2022-12-25T00:52:35.601Z,7.20
2022-12-25T00:55:05.795Z,7.03
2022-12-25T00:57:35.250Z,7.00
2022-12-25T01:00:03.972Z,6.90
2022-12-25T01:02:32.624Z,5.93
2022-12-25T01:05:01.256Z,6.50
2022-12-25T01:07:29.789Z,5.55
2022-12-25T01:10:15.968Z,5.28
2022-12-25T01:12:45.676Z,6.43
2022-12-25T01:15:14.921Z,6.38
2022-12-25T01:17:43.994Z,5.55
2022-12-25T01:20:14.424Z,6.25
2022-12-25T01:22:43.157Z,6.43
2022-12-25T01:25:12.708Z,6.63
2022-12-25T01:27:42.735Z,5.15
2022-12-25T01:30:13.403Z,5.18
2022-12-25T01:32:41.626Z,4.95
2022-12-25T01:35:11.956Z,5.25
2022-12-25T01:37:40.590Z,5.68
2022-12-25T01:40:10.269Z,5.93
2022-12-25T01:42:38.710Z,5.05
2022-12-25T01:45:41.828Z,5.65
2022-12-25T01:48:15.558Z,4.32
2022-12-25T01:50:53.734Z,5.00
2022-12-25T01:53:22.861Z,5.22
2022-12-25T01:55:55.416Z,5.20
2022-12-25T01:58:24.102Z,5.45
2022-12-25T02:00:54.601Z,4.60
2022-12-25T02:03:23.633Z,5.20
2022-12-25T02:05:53.045Z,4.90
2022-12-25T02:08:23.025Z,4.25
2022-12-25T02:10:51.698Z,3.78
2022-12-25T02:13:21.373Z,3.58
2022-12-25T02:16:04.743Z,3.90
2022-12-25T02:18:43.208Z,3.35
2022-12-25T02:21:39.117Z,3.20
2022-12-25T02:24:43.349Z,4.47
2022-12-25T02:27:25.556Z,3.70
2022-12-25T02:30:03.754Z,3.17
2022-12-25T02:32:36.212Z,3.97
2022-12-25T02:35:07.724Z,4.25
2022-12-25T02:37:42.995Z,3.45
2022-12-25T02:40:16.917Z,3.63
2022-12-25T02:43:10.406Z,3.83
2022-12-25T02:46:04.168Z,3.63
2022-12-25T02:48:54.037Z,3.72
2022-12-25T02:51:44.327Z,3.80
2022-12-25T02:54:37.982Z,4.03
2022-12-25T02:57:29.825Z,4.10
2022-12-25T03:00:19.131Z,3.50
2022-12-25T03:03:08.140Z,4.75
2022-12-25T03:05:59.902Z,4.47
2022-12-25T03:08:32.358Z,3.83
2022-12-25T03:11:24.523Z,3.30
2022-12-25T03:14:17.282Z,3.75
2022-12-25T03:16:53.655Z,3.15
2022-12-25T03:19:45.148Z,3.00
2022-12-25T03:22:32.198Z,3.20
2022-12-25T03:25:18.320Z,3.40
2022-12-25T03:27:50.383Z,3.03
2022-12-25T03:30:37.750Z,3.30
2022-12-25T03:33:37.171Z,3.10
2022-12-25T03:36:13.958Z,2.80
2022-12-25T03:39:04.509Z,3.25
2022-12-25T03:41:59.275Z,2.65
2022-12-25T03:44:56.481Z,3.35
2022-12-25T03:47:47.988Z,3.30
2022-12-25T03:50:40.265Z,3.15
2022-12-25T03:53:35.788Z,3.33
2022-12-25T03:59:19.333Z,2.50
2022-12-25T04:02:24.179Z,3.50
2022-12-25T04:05:10.197Z,3.25
2022-12-25T04:07:56.258Z,2.70
2022-12-25T04:10:43.880Z,3.22
2022-12-25T04:13:30.185Z,3.40
2022-12-25T04:16:16.268Z,2.92
2022-12-25T04:19:02.785Z,2.45
2022-12-25T04:21:48.649Z,2.63
2022-12-25T04:24:34.950Z,2.33
2022-12-25T04:27:22.487Z,2.42
2022-12-25T04:30:08.639Z,1.77
2022-12-25T04:32:53.896Z,1.95
2022-12-25T04:35:39.907Z,1.90
2022-12-25T04:38:08.456Z,1.83
2022-12-25T04:40:36.966Z,1.90
2022-12-25T04:43:06.941Z,1.92
2022-12-25T04:45:35.147Z,2.45
2022-12-25T04:48:03.433Z,1.45
2022-12-25T04:50:32.003Z,2.47
2022-12-25T04:53:00.618Z,3.00
2022-12-25T04:55:29.193Z,2.35
2022-12-25T04:57:57.855Z,2.20
2022-12-25T05:00:27.422Z,2.22
2022-12-25T05:02:56.550Z,2.78
2022-12-25T05:05:25.495Z,1.85
2022-12-25T05:07:54.352Z,2.30
2022-12-25T05:10:22.878Z,2.10
2022-12-25T05:12:51.563Z,3.05
2022-12-25T05:15:20.072Z,2.83
2022-12-25T05:17:51.648Z,1.95
2022-12-25T05:20:20.360Z,3.03
2022-12-25T05:22:49.027Z,2.78
2022-12-25T05:25:17.933Z,1.98
2022-12-25T05:27:50.270Z,2.20
2022-12-25T05:30:22.161Z,2.75
2022-12-25T05:32:51.707Z,3.22
2022-12-25T05:35:20.500Z,2.22
2022-12-25T05:37:49.133Z,2.85
2022-12-25T05:40:17.614Z,2.88
2022-12-25T05:42:46.113Z,2.15
2022-12-25T05:45:14.820Z,2.30
2022-12-25T05:47:43.406Z,2.72
2022-12-25T05:50:13.152Z,2.83
2022-12-25T05:52:41.709Z,2.63
2022-12-25T05:55:10.512Z,2.75
2022-12-25T05:57:39.006Z,2.72
2022-12-25T06:00:09.208Z,2.83
2022-12-25T06:02:41.112Z,2.58
2022-12-25T06:05:10.678Z,2.47
2022-12-25T06:07:40.415Z,2.30
2022-12-25T06:10:09.962Z,2.97
2022-12-25T06:12:38.781Z,3.05
2022-12-25T06:15:09.093Z,2.50
2022-12-25T06:17:37.645Z,3.38
2022-12-25T06:20:07.226Z,2.38
2022-12-25T06:22:36.173Z,2.75
2022-12-25T06:25:08.456Z,2.63
2022-12-25T06:27:37.083Z,2.67
2022-12-25T06:30:06.255Z,2.50
2022-12-25T06:32:35.744Z,2.88
2022-12-25T06:35:04.377Z,2.55
2022-12-25T06:37:33.170Z,2.47
2022-12-25T06:40:01.742Z,2.08
2022-12-25T06:42:31.429Z,2.70
2022-12-25T06:44:59.710Z,1.95
2022-12-25T06:47:28.436Z,1.98
2022-12-25T06:49:56.941Z,2.38
2022-12-25T06:52:25.428Z,2.58
2022-12-25T06:54:53.984Z,2.58
2022-12-25T06:57:22.585Z,2.45
2022-12-25T06:59:55.362Z,2.35
2022-12-25T07:02:25.470Z,2.88
2022-12-25T07:04:54.335Z,2.70
2022-12-25T07:07:23.583Z,2.05
2022-12-25T07:09:52.539Z,2.00
2022-12-25T07:12:23.420Z,1.80
2022-12-25T07:14:56.198Z,2.03
2022-12-25T07:17:24.886Z,2.88
2022-12-25T07:19:53.410Z,2.53
2022-12-25T07:22:22.131Z,2.53
2022-12-25T07:24:50.614Z,8.85
2022-12-25T07:27:19.149Z,6.75
2022-12-25T07:29:47.930Z,5.45
2022-12-25T07:32:17.603Z,4.53
2022-12-25T07:34:46.113Z,5.38
2022-12-25T07:37:15.137Z,5.35
2022-12-25T07:39:43.311Z,4.53
2022-12-25T07:42:11.924Z,5.72
2022-12-25T07:44:40.479Z,5.68
2022-12-25T07:47:09.201Z,4.20
2022-12-25T07:49:39.809Z,3.83
2022-12-25T07:52:09.280Z,3.70
2022-12-25T07:54:38.017Z,3.70
2022-12-25T07:57:06.520Z,2.38
2022-12-25T07:59:34.751Z,3.40
2022-12-25T08:02:03.263Z,4.07
2022-12-25T08:04:32.173Z,3.33
2022-12-25T08:07:01.779Z,3.25
2022-12-25T08:09:30.285Z,3.42
2022-12-25T08:11:58.529Z,3.80
2022-12-25T08:14:27.488Z,3.72
2022-12-25T08:16:56.188Z,3.35
2022-12-25T08:19:24.762Z,3.13
2022-12-25T08:21:53.295Z,3.53
2022-12-25T08:24:23.048Z,3.13
2022-12-25T08:26:51.397Z,4.38
2022-12-25T08:29:19.945Z,4.13
2022-12-25T08:31:48.558Z,3.28
2022-12-25T08:34:17.278Z,3.38
2022-12-25T08:36:45.801Z,3.03
2022-12-25T08:39:14.314Z,3.35
2022-12-25T08:41:43.959Z,5.00
2022-12-25T08:44:13.664Z,3.65
2022-12-25T08:46:42.225Z,4.13
2022-12-25T08:49:10.749Z,2.47
2022-12-25T08:51:39.085Z,2.92
2022-12-25T08:54:07.615Z,3.25
2022-12-25T08:56:36.536Z,2.65
2022-12-25T08:59:06.174Z,3.45
2022-12-25T09:01:34.864Z,3.10
2022-12-25T09:04:03.562Z,3.47
2022-12-25T09:06:32.123Z,2.80
2022-12-25T09:09:00.625Z,2.90
2022-12-25T09:11:28.893Z,3.13
2022-12-25T09:13:57.605Z,3.78
2022-12-25T09:16:27.516Z,3.08
2022-12-25T09:18:58.234Z,3.05
2022-12-25T09:21:26.573Z,3.55
2022-12-25T09:23:55.583Z,3.55
2022-12-25T09:26:24.155Z,3.38
2022-12-25T09:28:52.944Z,3.33
2022-12-25T09:31:22.261Z,3.50
2022-12-25T09:33:52.853Z,3.42
2022-12-25T09:36:23.264Z,3.58
2022-12-25T09:38:52.609Z,4.45
2022-12-25T09:41:29.756Z,3.90
2022-12-25T09:44:03.913Z,3.97
2022-12-25T09:46:41.821Z,4.10
2022-12-25T09:49:21.416Z,3.40
2022-12-25T09:51:57.539Z,3.45
2022-12-25T09:54:38.250Z,3.95
2022-12-25T09:57:10.597Z,3.42
2022-12-25T09:59:39.322Z,4.03
2022-12-25T10:03:14.450Z,5.70
2022-12-25T10:06:11.951Z,2.92
2022-12-25T10:09:23.068Z,3.60
2022-12-25T10:12:11.476Z,3.85
2022-12-25T10:14:47.328Z,4.40
2022-12-25T10:17:37.118Z,3.85
2022-12-25T10:20:15.394Z,4.03
2022-12-25T10:22:48.823Z,3.53
2022-12-25T10:25:21.301Z,3.55
2022-12-25T10:27:55.675Z,2.70
2022-12-25T10:30:27.793Z,3.60
2022-12-25T10:32:58.368Z,3.58
2022-12-25T10:35:29.940Z,3.35
2022-12-25T10:38:03.021Z,3.42
2022-12-25T10:40:39.484Z,3.63
2022-12-25T10:43:13.433Z,3.10
2022-12-25T10:45:46.658Z,3.60
2022-12-25T10:48:23.942Z,4.25
2022-12-25T10:50:52.944Z,4.22
2022-12-25T10:53:25.388Z,3.95
2022-12-25T10:56:02.004Z,3.67
2022-12-25T10:58:31.412Z,3.17
2022-12-25T11:01:03.919Z,3.40
2022-12-25T11:03:35.616Z,3.35
2022-12-25T11:06:05.429Z,3.50
2022-12-25T11:08:36.150Z,3.45
2022-12-25T11:11:07.000Z,3.00
2022-12-25T11:13:40.281Z,2.47
2022-12-25T11:16:11.750Z,2.83
2022-12-25T11:18:48.710Z,2.47
2022-12-25T11:21:19.924Z,2.50
2022-12-25T11:23:56.781Z,2.53
2022-12-25T11:26:25.418Z,2.67
2022-12-25T11:28:56.236Z,2.88
2022-12-25T11:31:37.436Z,2.90
2022-12-25T11:34:11.435Z,2.50
2022-12-25T11:36:46.458Z,2.92
2022-12-25T11:39:25.668Z,2.78
2022-12-25T11:42:00.109Z,3.03
2022-12-25T11:44:43.405Z,3.17
2022-12-25T11:47:22.308Z,3.30
2022-12-25T11:50:00.555Z,2.55
2022-12-25T11:52:35.218Z,2.42
2022-12-25T11:55:16.343Z,2.58
2022-12-25T11:57:48.938Z,2.10
2022-12-25T12:00:18.587Z,2.22
2022-12-25T12:02:53.532Z,2.60
2022-12-25T12:05:30.302Z,3.00
2022-12-25T12:08:01.995Z,2.70
2022-12-25T12:10:45.543Z,2.55
2022-12-25T12:13:39.027Z,2.72
2022-12-25T12:16:09.029Z,2.15
2022-12-25T12:18:37.769Z,2.20
2022-12-25T12:21:11.630Z,4.18
2022-12-25T12:23:52.176Z,3.10
2022-12-25T12:26:24.523Z,2.35
2022-12-25T12:28:56.342Z,2.10
2022-12-25T12:31:25.860Z,2.08
2022-12-25T12:33:58.451Z,1.95
2022-12-25T12:36:36.220Z,2.17
2022-12-25T12:39:06.351Z,2.13
2022-12-25T12:41:47.200Z,2.20
2022-12-25T12:44:17.540Z,2.80
2022-12-25T12:46:54.332Z,2.53
2022-12-25T12:49:25.982Z,2.42
2022-12-25T12:52:07.704Z,2.30
2022-12-25T12:54:56.892Z,2.17
2022-12-25T12:57:29.777Z,1.55
2022-12-25T13:00:04.829Z,1.80
2022-12-25T13:03:39.553Z,2.00
2022-12-25T13:06:15.793Z,2.53
2022-12-25T13:08:59.741Z,2.45
2022-12-25T13:11:31.097Z,1.98
2022-12-25T13:14:04.057Z,2.28
2022-12-25T13:16:37.636Z,2.40
2022-12-25T13:19:08.913Z,1.95
2022-12-25T13:21:37.503Z,1.60
2022-12-25T13:24:18.966Z,1.83
2022-12-25T13:26:47.282Z,2.28
2022-12-25T13:29:29.133Z,1.95
2022-12-25T13:31:58.447Z,2.30
2022-12-25T13:34:32.343Z,1.88
2022-12-25T13:37:06.892Z,1.90
2022-12-25T13:39:37.549Z,1.88
2022-12-25T13:42:09.820Z,1.52
2022-12-25T13:44:50.425Z,2.03
2022-12-25T13:47:25.767Z,1.50
2022-12-25T13:49:56.597Z,2.00
2022-12-25T13:52:33.215Z,1.58
2022-12-25T13:55:03.877Z,1.88
2022-12-25T13:57:37.967Z,1.85
2022-12-25T14:00:18.875Z,1.98
2022-12-25T14:02:48.198Z,1.73
2022-12-25T14:05:31.319Z,1.25
2022-12-25T14:10:35.635Z,1.23
2022-12-25T14:13:07.753Z,1.75
2022-12-25T14:15:39.761Z,1.55
2022-12-25T14:18:14.499Z,1.80
2022-12-25T14:20:55.418Z,1.98
2022-12-25T14:23:24.040Z,2.97
2022-12-25T14:25:55.217Z,1.88
2022-12-25T14:28:32.373Z,1.88
2022-12-25T14:31:03.618Z,1.80
2022-12-25T14:33:39.491Z,1.98
2022-12-25T14:36:12.091Z,2.30
2022-12-25T14:38:43.900Z,2.10
2022-12-25T14:41:33.449Z,2.10
2022-12-25T14:44:06.252Z,2.45
2022-12-25T14:46:36.358Z,2.35
2022-12-25T14:49:08.189Z,2.30
2022-12-25T14:51:40.106Z,2.22
2022-12-25T14:54:20.223Z,2.60
2022-12-25T14:56:51.331Z,2.83
2022-12-25T14:59:25.090Z,2.45
2022-12-25T15:02:01.015Z,2.47
2022-12-25T15:04:30.887Z,2.25
2022-12-25T15:07:01.524Z,2.40
2022-12-25T15:09:30.869Z,2.17
2022-12-25T15:11:59.630Z,2.38
2022-12-25T15:14:30.072Z,2.55
2022-12-25T15:17:02.825Z,3.50
2022-12-25T15:19:37.821Z,3.22
2022-12-25T15:22:07.253Z,2.90
2022-12-25T15:24:35.748Z,2.80
2022-12-25T15:27:05.405Z,2.53
2022-12-25T15:32:25.206Z,3.53
2022-12-25T15:34:53.930Z,2.78
2022-12-25T15:37:22.579Z,3.75
2022-12-25T15:39:51.208Z,4.00
2022-12-25T15:42:23.636Z,3.38
2022-12-25T15:44:52.675Z,3.55
2022-12-25T15:47:22.831Z,3.55
2022-12-25T15:49:52.453Z,3.45
2022-12-25T15:52:20.662Z,3.95
2022-12-25T15:54:48.885Z,2.65
2022-12-25T15:57:21.186Z,2.42
2022-12-25T15:59:49.713Z,3.60
2022-12-25T16:02:21.328Z,3.35
2022-12-25T16:04:51.071Z,3.83
2022-12-25T16:07:24.913Z,3.50
2022-12-25T16:09:53.699Z,3.95
2022-12-25T16:12:22.220Z,3.42
2022-12-25T16:14:50.785Z,3.17
2022-12-25T16:17:18.993Z,2.67
2022-12-25T16:19:47.252Z,3.03
2022-12-25T16:22:22.138Z,3.45
2022-12-25T16:24:50.851Z,3.58
2022-12-25T16:27:19.275Z,3.58
2022-12-25T16:29:47.928Z,3.75
2022-12-25T16:32:16.964Z,3.55
2022-12-25T16:34:45.277Z,3.78
2022-12-25T16:37:13.503Z,4.65
2022-12-25T16:39:43.075Z,3.38
2022-12-25T16:42:11.319Z,3.58
2022-12-25T16:44:39.866Z,4.15
2022-12-25T16:47:08.383Z,5.10
2022-12-25T16:49:36.885Z,4.13
2022-12-25T16:52:05.692Z,5.43
2022-12-25T16:54:34.222Z,5.88
2022-12-25T16:57:03.814Z,3.92
2022-12-25T16:59:32.959Z,3.78
2022-12-25T17:02:01.622Z,4.03
2022-12-25T17:04:30.304Z,4.30
2022-12-25T17:06:58.928Z,4.38
2022-12-25T17:09:27.490Z,4.07
2022-12-25T17:11:56.023Z,4.60
2022-12-25T17:14:26.007Z,4.50
2022-12-25T17:16:54.533Z,4.97
2022-12-25T17:19:24.618Z,3.75
2022-12-25T17:21:54.673Z,3.80
2022-12-25T17:24:23.442Z,4.30
2022-12-25T17:26:51.979Z,3.88
2022-12-25T17:29:22.556Z,3.75
2022-12-25T17:31:53.224Z,4.03
2022-12-25T17:34:22.224Z,3.97
2022-12-25T17:36:50.834Z,4.10
2022-12-25T17:39:19.786Z,4.30
2022-12-25T17:41:49.920Z,4.75
2022-12-25T17:44:18.766Z,4.38
2022-12-25T17:46:47.740Z,4.88
2022-12-25T17:49:20.169Z,5.00
2022-12-25T17:51:49.132Z,4.47
2022-12-25T17:54:17.356Z,4.68
2022-12-25T17:56:46.029Z,5.05
2022-12-25T17:59:18.386Z,5.00
2022-12-25T18:01:49.109Z,5.53
2022-12-25T18:04:18.968Z,4.80
2022-12-25T18:06:47.882Z,5.80
2022-12-25T18:09:16.869Z,6.00
2022-12-25T18:11:45.751Z,6.05
2022-12-25T18:14:16.440Z,6.03
2022-12-25T18:16:46.177Z,5.82
2022-12-25T18:19:16.059Z,5.40
2022-12-25T18:21:45.708Z,5.45
2022-12-25T18:24:14.251Z,5.63
2022-12-25T18:26:43.019Z,6.40
2022-12-25T18:29:11.535Z,5.90
2022-12-25T18:31:40.104Z,6.70
2022-12-25T18:34:09.552Z,6.80
2022-12-25T18:36:38.118Z,5.88
2022-12-25T18:39:07.752Z,6.72
2022-12-25T18:41:57.066Z,6.35
2022-12-25T18:44:25.610Z,7.38
2022-12-25T18:46:54.145Z,6.55
2022-12-25T18:49:22.778Z,5.50
2022-12-25T18:51:51.473Z,5.53
2022-12-25T18:54:21.086Z,6.10
2022-12-25T18:56:53.458Z,6.15
2022-12-25T18:59:22.218Z,6.13
2022-12-25T19:01:50.799Z,5.22
2022-12-25T19:04:19.618Z,5.20
2022-12-25T19:06:49.219Z,5.50
2022-12-25T19:09:17.887Z,5.50
2022-12-25T19:11:47.683Z,4.43
2022-12-25T19:14:17.533Z,4.35
2022-12-25T19:16:46.055Z,5.15
2022-12-25T19:19:14.637Z,4.15
2022-12-25T19:21:43.383Z,4.50
2022-12-25T19:24:12.101Z,4.00
2022-12-25T19:26:40.842Z,4.32
2022-12-25T19:29:10.469Z,4.65
2022-12-25T19:31:40.586Z,5.05
2022-12-25T19:34:09.943Z,5.40
2022-12-25T19:36:38.892Z,5.95
2022-12-25T19:39:09.032Z,5.45
2022-12-25T19:41:37.608Z,5.45
2022-12-25T19:44:07.225Z,5.47
2022-12-25T19:46:42.021Z,6.00
2022-12-25T19:49:14.522Z,5.72
2022-12-25T19:51:46.191Z,5.57
2022-12-25T19:54:18.823Z,5.50
2022-12-25T19:56:47.645Z,5.78
2022-12-25T19:59:16.586Z,5.03
2022-12-25T20:01:46.438Z,4.30
2022-12-25T20:04:19.375Z,5.22
2022-12-25T20:06:48.028Z,4.93
2022-12-25T20:09:21.528Z,4.70
2022-12-25T20:11:51.679Z,3.35
2022-12-25T20:14:20.465Z,2.80
2022-12-25T20:16:50.105Z,3.20
2022-12-25T20:19:19.307Z,4.03
2022-12-25T20:21:48.719Z,5.03
2022-12-25T20:24:18.082Z,5.47
2022-12-25T20:26:48.047Z,4.57
2022-12-25T20:29:17.682Z,4.43
2022-12-25T20:31:46.242Z,5.20
2022-12-25T20:34:15.971Z,4.57
2022-12-25T20:36:45.264Z,4.68
2022-12-25T20:39:14.562Z,4.55
2022-12-25T20:41:43.942Z,4.30
2022-12-25T20:44:13.201Z,4.93
2022-12-25T20:46:41.895Z,5.00
2022-12-25T20:49:10.138Z,4.63
2022-12-25T20:51:40.692Z,4.28
2022-12-25T20:54:10.177Z,5.40
2022-12-25T20:56:38.765Z,5.10
2022-12-25T20:59:07.029Z,4.78
2022-12-25T21:01:35.503Z,4.85
2022-12-25T21:04:03.912Z,4.20
2022-12-25T21:06:32.549Z,4.80
2022-12-25T21:09:02.423Z,4.28
2022-12-25T21:11:31.458Z,3.95
2022-12-25T21:14:00.172Z,4.00
2022-12-25T21:16:29.007Z,3.40
2022-12-25T21:18:57.571Z,2.90
2022-12-25T21:21:26.155Z,2.70
2022-12-25T21:23:57.764Z,2.90
2022-12-25T21:26:31.292Z,2.92
2022-12-25T21:29:03.171Z,2.60
2022-12-25T21:31:52.470Z,2.78
2022-12-25T21:34:19.756Z,2.92
2022-12-25T21:36:48.676Z,2.20
2022-12-25T21:39:17.368Z,3.03
2022-12-25T21:41:46.971Z,3.20
2022-12-25T21:44:15.507Z,3.38
2022-12-25T21:46:44.057Z,3.22
2022-12-25T21:49:32.680Z,3.38
2022-12-25T21:52:09.292Z,4.30
2022-12-25T21:54:38.055Z,4.15
2022-12-25T21:57:07.669Z,3.67
2022-12-25T21:59:36.312Z,4.22
2022-12-25T22:02:11.099Z,3.83
2022-12-25T22:04:40.260Z,4.28
2022-12-25T22:07:17.260Z,3.83
2022-12-25T22:09:46.434Z,4.30
2022-12-25T22:12:34.896Z,3.08
2022-12-25T22:15:06.442Z,3.78
2022-12-25T22:17:55.487Z,4.18
2022-12-25T22:20:27.663Z,4.43
2022-12-25T22:22:56.835Z,3.30
2022-12-25T22:25:25.881Z,3.55
2022-12-25T22:27:55.948Z,3.75
2022-12-25T22:30:26.690Z,2.88
2022-12-25T22:32:55.583Z,3.30
2022-12-25T22:35:24.314Z,3.40
2022-12-25T22:37:53.969Z,2.90
2022-12-25T22:40:22.678Z,2.75
2022-12-25T22:42:55.695Z,3.65
2022-12-25T22:45:24.561Z,2.75
2022-12-25T22:47:53.125Z,2.80
2022-12-25T22:50:21.893Z,2.83
2022-12-25T22:52:50.256Z,3.22
2022-12-25T22:55:20.037Z,2.88
2022-12-25T22:57:49.240Z,2.92
2022-12-25T23:00:18.977Z,3.30
2022-12-25T23:02:47.955Z,2.40
2022-12-25T23:05:16.778Z,2.83
2022-12-25T23:07:45.312Z,2.90
2022-12-25T23:10:13.881Z,3.38
2022-12-25T23:13:00.498Z,2.55
2022-12-25T23:15:30.150Z,3.20
2022-12-25T23:18:16.517Z,2.70
2022-12-25T23:21:02.447Z,3.05
2022-12-25T23:23:48.481Z,3.20
2022-12-25T23:26:20.824Z,2.95
2022-12-25T23:29:06.581Z,3.05
2022-12-25T23:31:40.501Z,3.83
2022-12-25T23:34:10.236Z,3.65
2022-12-25T23:36:38.770Z,3.50
2022-12-25T23:39:10.401Z,3.28
2022-12-25T23:41:39.594Z,3.30
2022-12-25T23:44:08.920Z,3.38
2022-12-25T23:46:39.672Z,2.63
2022-12-25T23:49:08.586Z,2.42
2022-12-25T23:51:37.574Z,2.90
2022-12-25T23:54:07.227Z,2.47
2022-12-25T23:56:35.778Z,2.92
2022-12-25T23:59:04.957Z,2.83
